MST,Max TemperatureF,Mean TemperatureF,Min TemperatureF,Max Dew PointF,MeanDew PointF,Min DewpointF,Max Humidity, Mean Humidity, Min Humidity, Max Sea Level PressureIn, Mean Sea Level PressureIn, Min Sea Level PressureIn, Max VisibilityMiles, Mean VisibilityMiles, Min VisibilityMiles, Max Wind SpeedMPH, Mean Wind SpeedMPH, Max Gust SpeedMPH,PrecipitationIn, CloudCover, Events, WindDirDegrees
2013-11-1,78,63,48,32,31,27,54,28,16,30.17,30.09,30.01,20,20,20,8,3,,0.00,0,,357
2013-11-2,86,70,53,32,25,16,44,19,7,30.03,29.93,29.83,20,20,20,14,5,,0.00,1,,144
2013-11-3,80,68,55,37,31,28,41,23,15,29.87,29.81,29.75,20,20,20,12,4,,0.00,1,,210
2013-11-4,78,64,51,37,34,30,47,29,18,29.82,29.72,29.13,20,19,10,12,3,,0.00,3,Rain,209
2013-11-5,73,64,55,50,43,39,82,46,31,30.09,30.02,29.94,20,20,20,9,6,,0.00,1,,293
2013-11-6,75,63,51,23,9,0,30,13,5,30.30,30.23,30.18,20,20,20,12,5,,0.00,0,,356
2013-11-7,82,65,48,21,13,3,32,14,5,30.22,30.13,30.04,20,20,20,12,4,,0.00,1,,33
2013-11-8,82,68,53,36,30,25,33,22,15,30.09,30.02,29.94,20,20,20,6,2,,0.00,3,,121
2013-11-9,82,68,53,36,35,34,51,26,17,30.11,30.05,30.00,20,20,20,6,1,,0.00,0,,43
2013-11-10,82,68,55,39,36,34,44,27,17,30.14,30.07,30.01,20,20,20,5,1,,0.00,5,,338
2013-11-11,89,72,55,41,38,36,54,28,15,30.10,30.03,29.97,20,20,20,5,2,,0.00,0,,60
2013-11-12,91,74,57,37,32,27,36,21,11,30.19,30.12,30.06,20,20,20,14,3,,0.00,5,,39
2013-11-13,82,74,66,46,43,39,40,30,25,30.15,30.06,29.97,20,20,20,12,7,,0.00,1,,56
2013-11-14,80,68,55,45,43,39,59,38,26,30.03,29.94,29.84,20,20,20,7,1,,0.00,1,,108
2013-11-15,82,70,57,48,44,37,59,39,20,29.76,29.68,29.57,20,17,6,20,5,29,0.00,5,,180
2013-11-16,71,65,59,54,48,43,77,52,35,29.85,29.80,29.76,20,20,20,14,7,17,0.00,5,,207
2013-11-17,73,62,51,46,45,43,71,48,36,30.09,30.03,30.00,20,20,20,6,2,,0.00,1,,2
2013-11-18,78,66,53,45,42,39,62,39,28,30.10,30.03,29.97,20,20,20,5,2,,0.00,2,,317
2013-11-19,75,63,51,46,45,41,72,47,34,30.00,29.92,29.85,20,20,20,9,1,,0.00,5,,212
2013-11-20,73,66,59,46,45,43,63,45,33,29.90,29.85,29.80,20,20,20,12,2,,0.00,5,,206
2013-11-21,69,62,55,48,45,43,63,52,43,29.94,29.90,29.88,20,20,20,4,0,,0.00,7,,310
2013-11-22,57,55,53,57,55,54,100,100,94,29.98,29.92,29.85,20,8,4,9,5,,0.00,8,Rain,200
2013-11-23,59,56,53,54,48,43,100,74,59,30.06,30.04,30.00,20,19,10,13,6,17,0.00,7,Rain,71
2013-11-24,62,56,51,48,44,41,88,65,51,30.18,30.15,30.13,20,20,20,6,3,,0.00,6,,1
2013-11-25,62,53,44,48,45,43,100,71,48,30.24,30.19,30.16,20,20,20,5,1,,0.00,0,,330
2013-11-26,69,56,44,46,40,36,100,54,28,30.30,30.22,30.15,20,20,20,12,5,,0.00,1,,51
2013-11-27,69,60,51,36,33,28,54,35,21,30.14,30.07,30.00,20,20,20,15,8,18,0.00,6,,43
2013-11-28,71,58,44,43,35,30,81,43,25,30.10,30.04,30.00,20,20,20,14,3,,0.00,1,,66
2013-11-29,71,58,46,46,41,39,87,51,31,30.19,30.13,30.09,20,20,20,5,1,,0.00,5,,258
2013-11-30,69,56,44,48,44,41,100,57,35,30.19,30.13,30.07,20,20,20,7,2,,0.00,5,,217